createdAt,value
2018-09-15T00:01:55.735Z,100337.00
2018-09-15T00:04:23.854Z,100330.00
2018-09-15T00:06:52.368Z,100327.00
2018-09-15T00:09:20.382Z,100326.00
2018-09-15T00:11:48.074Z,100325.00
2018-09-15T00:14:15.682Z,100329.00
2018-09-15T00:16:43.425Z,100326.00
2018-09-15T00:19:11.116Z,100328.00
2018-09-15T00:21:39.081Z,100326.00
2018-09-15T00:24:07.230Z,100322.00
2018-09-15T00:26:34.966Z,100324.00
2018-09-15T00:29:02.660Z,100323.00
2018-09-15T00:31:30.317Z,100313.00
2018-09-15T00:33:58.082Z,100309.00
2018-09-15T00:36:26.307Z,100312.00
2018-09-15T00:38:53.978Z,100323.00
2018-09-15T00:41:21.729Z,100325.00
2018-09-15T00:43:50.189Z,100322.00
2018-09-15T00:46:17.891Z,100318.00
2018-09-15T00:48:45.893Z,100319.00
2018-09-15T00:51:13.555Z,100317.00
2018-09-15T00:53:41.243Z,100311.00
2018-09-15T00:56:09.405Z,100312.00
2018-09-15T00:58:37.157Z,100306.00
2018-09-15T01:01:04.987Z,100297.00
2018-09-15T01:03:32.808Z,100291.00
2018-09-15T01:06:00.451Z,100290.00
2018-09-15T01:08:28.108Z,100292.00
2018-09-15T01:10:56.009Z,100295.00
2018-09-15T01:13:23.739Z,100297.00
2018-09-15T01:15:51.410Z,100299.00
2018-09-15T01:18:19.714Z,100293.00
2018-09-15T01:20:47.374Z,100290.00
2018-09-15T01:23:14.999Z,100287.00
2018-09-15T01:25:42.787Z,100282.00
2018-09-15T01:28:10.437Z,100284.00
2018-09-15T01:30:38.841Z,100287.00
2018-09-15T01:33:07.245Z,100288.00
2018-09-15T01:35:34.961Z,100293.00
2018-09-15T01:38:02.719Z,100293.00
2018-09-15T01:40:30.370Z,100294.00
2018-09-15T01:42:58.098Z,100293.00
2018-09-15T01:45:26.173Z,100293.00
2018-09-15T01:47:53.878Z,100305.00
2018-09-15T01:50:21.634Z,100307.00
2018-09-15T01:52:49.629Z,100308.00
2018-09-15T01:55:17.301Z,100305.00
2018-09-15T01:57:44.986Z,100304.00
2018-09-15T02:00:12.831Z,100310.00
2018-09-15T02:02:40.516Z,100308.00
2018-09-15T02:05:08.849Z,100313.00
2018-09-15T02:07:36.629Z,100308.00
2018-09-15T02:10:21.934Z,100308.00
2018-09-15T02:12:50.307Z,100310.00
2018-09-15T02:15:18.314Z,100311.00
2018-09-15T02:17:46.040Z,100322.00
2018-09-15T02:20:13.667Z,100322.00
2018-09-15T02:22:41.499Z,100325.00
2018-09-15T02:25:09.101Z,100323.00
2018-09-15T02:27:36.722Z,100318.00
2018-09-15T02:30:04.474Z,100328.00
2018-09-15T02:32:32.070Z,100323.00
2018-09-15T02:34:59.745Z,100325.00
2018-09-15T02:37:27.400Z,100329.00
2018-09-15T02:39:55.051Z,100335.00
2018-09-15T02:42:22.645Z,100330.00
2018-09-15T02:44:50.275Z,100332.00
2018-09-15T02:47:18.037Z,100328.00
2018-09-15T02:49:45.685Z,100331.00
2018-09-15T02:52:13.448Z,100322.00
2018-09-15T02:54:41.250Z,100324.00
2018-09-15T02:57:09.028Z,100341.00
2018-09-15T02:59:36.663Z,100338.00
2018-09-15T03:02:09.204Z,100336.00
2018-09-15T03:04:39.944Z,100334.00
2018-09-15T03:07:08.007Z,100332.00
2018-09-15T03:09:36.017Z,100340.00
2018-09-15T03:12:07.497Z,100341.00
2018-09-15T03:14:35.309Z,100348.00
2018-09-15T03:17:08.495Z,100347.00
2018-09-15T03:19:36.113Z,100344.00
2018-09-15T03:22:19.757Z,100344.00
2018-09-15T03:24:47.398Z,100343.00
2018-09-15T03:27:15.099Z,100349.00
2018-09-15T03:29:42.997Z,100353.00
2018-09-15T03:32:10.627Z,100358.00
2018-09-15T03:34:38.358Z,100357.00
2018-09-15T03:37:06.397Z,100357.00
2018-09-15T03:39:34.017Z,100357.00
2018-09-15T03:42:01.713Z,100356.00
2018-09-15T03:44:29.526Z,100363.00
2018-09-15T03:46:57.198Z,100361.00
2018-09-15T03:49:24.836Z,100364.00
2018-09-15T03:51:52.777Z,100368.00
2018-09-15T03:54:21.318Z,100370.00
2018-09-15T03:56:49.538Z,100383.00
2018-09-15T03:59:17.994Z,100384.00
2018-09-15T04:01:46.276Z,100387.00
2018-09-15T04:04:13.902Z,100389.00
2018-09-15T04:06:42.133Z,100391.00
2018-09-15T04:09:10.998Z,100394.00
2018-09-15T04:11:38.678Z,100398.00
2018-09-15T04:14:08.400Z,100398.00
2018-09-15T04:16:36.114Z,100395.00
2018-09-15T04:19:08.008Z,100395.00
2018-09-15T04:21:35.650Z,100402.00
2018-09-15T04:24:08.473Z,100406.00
2018-09-15T04:26:36.113Z,100406.00
2018-09-15T04:29:07.883Z,100412.00
2018-09-15T04:31:35.765Z,100417.00
2018-09-15T04:34:03.397Z,100418.00
2018-09-15T04:36:31.204Z,100423.00
2018-09-15T04:38:59.014Z,100425.00
2018-09-15T04:41:26.647Z,100424.00
2018-09-15T04:43:54.478Z,100416.00
2018-09-15T04:46:22.295Z,100420.00
2018-09-15T04:48:49.917Z,100417.00
2018-09-15T04:51:17.997Z,100418.00
2018-09-15T04:53:45.595Z,100416.00
2018-09-15T04:56:13.260Z,100419.00
2018-09-15T04:58:41.275Z,100424.00
2018-09-15T05:01:09.250Z,100427.00
2018-09-15T05:03:37.164Z,100433.00
2018-09-15T05:06:04.926Z,100436.00
2018-09-15T05:08:32.604Z,100442.00
2018-09-15T05:11:00.678Z,100439.00
2018-09-15T05:13:28.395Z,100440.00
2018-09-15T05:15:56.029Z,100440.00
2018-09-15T05:18:23.700Z,100435.00
2018-09-15T05:20:51.298Z,100446.00
2018-09-15T05:23:18.940Z,100450.00
2018-09-15T05:25:46.479Z,100451.00
2018-09-15T05:28:14.146Z,100456.00
2018-09-15T05:30:41.761Z,100462.00
2018-09-15T05:33:09.513Z,100460.00
2018-09-15T05:35:37.127Z,100464.00
2018-09-15T05:38:05.077Z,100473.00
2018-09-15T05:40:33.224Z,100480.00
2018-09-15T05:43:00.949Z,100479.00
2018-09-15T05:45:28.610Z,100480.00
2018-09-15T05:47:56.303Z,100479.00
2018-09-15T05:50:24.032Z,100480.00
2018-09-15T05:52:52.460Z,100478.00
2018-09-15T05:55:20.441Z,100485.00
2018-09-15T05:57:48.144Z,100491.00
2018-09-15T06:00:15.848Z,100501.00
2018-09-15T06:02:43.721Z,100505.00
2018-09-15T06:05:11.486Z,100501.00
2018-09-15T06:07:39.333Z,100499.00
2018-09-15T06:10:07.279Z,100503.00
2018-09-15T06:12:35.395Z,100499.00
2018-09-15T06:15:03.170Z,100498.00
2018-09-15T06:17:30.905Z,100495.00
2018-09-15T06:19:58.568Z,100498.00
2018-09-15T06:22:26.258Z,100501.00
2018-09-15T06:24:54.002Z,100503.00
2018-09-15T06:27:21.597Z,100498.00
2018-09-15T06:29:49.235Z,100504.00
2018-09-15T06:32:17.477Z,100508.00
2018-09-15T06:34:45.120Z,100518.00
2018-09-15T06:37:13.017Z,100527.00
2018-09-15T06:39:44.468Z,100532.00
2018-09-15T06:42:12.240Z,100531.00
2018-09-15T06:44:53.798Z,100531.00
2018-09-15T06:47:21.483Z,100539.00
2018-09-15T06:49:49.114Z,100538.00
2018-09-15T06:52:17.053Z,100534.00
2018-09-15T06:54:44.709Z,100539.00
2018-09-15T06:57:12.333Z,100543.00
2018-09-15T06:59:40.117Z,100547.00
2018-09-15T07:02:07.740Z,100548.00
2018-09-15T07:04:35.370Z,100549.00
2018-09-15T07:07:03.614Z,100550.00
2018-09-15T07:09:31.212Z,100554.00
2018-09-15T07:11:58.786Z,100560.00
2018-09-15T07:14:26.377Z,100568.00
2018-09-15T07:16:54.003Z,100572.00
2018-09-15T07:19:21.653Z,100572.00
2018-09-15T07:21:49.689Z,100575.00
2018-09-15T07:24:17.331Z,100582.00
2018-09-15T07:26:44.952Z,100578.00
2018-09-15T07:29:12.877Z,100583.00
2018-09-15T07:31:40.514Z,100584.00
2018-09-15T07:34:08.181Z,100580.00
2018-09-15T07:36:36.091Z,100583.00
2018-09-15T07:39:07.065Z,100586.00
2018-09-15T07:41:34.729Z,100591.00
2018-09-15T07:44:03.489Z,100593.00
2018-09-15T07:46:31.181Z,100594.00
2018-09-15T07:48:58.760Z,100593.00
2018-09-15T07:51:26.588Z,100596.00
2018-09-15T07:53:54.220Z,100601.00
2018-09-15T07:56:21.882Z,100601.00
2018-09-15T07:58:50.311Z,100595.00
2018-09-15T08:01:17.901Z,100604.00
2018-09-15T08:03:47.065Z,100599.00
2018-09-15T08:06:14.809Z,100603.00
2018-09-15T08:08:44.041Z,100606.00
2018-09-15T08:11:11.737Z,100608.00
2018-09-15T08:13:39.937Z,100612.00
2018-09-15T08:16:07.672Z,100611.00
2018-09-15T08:18:35.298Z,100610.00
2018-09-15T08:21:02.895Z,100608.00
2018-09-15T08:23:30.674Z,100609.00
2018-09-15T08:25:58.619Z,100611.00
2018-09-15T08:28:26.861Z,100610.00
2018-09-15T08:30:54.619Z,100605.00
2018-09-15T08:33:24.605Z,100611.00
2018-09-15T08:35:53.281Z,100612.00
2018-09-15T08:38:21.019Z,100610.00
2018-09-15T08:40:48.674Z,100610.00
2018-09-15T08:43:16.865Z,100616.00
2018-09-15T08:45:46.856Z,100616.00
2018-09-15T08:48:17.453Z,100623.00
2018-09-15T08:50:45.984Z,100619.00
2018-09-15T08:53:14.214Z,100611.00
2018-09-15T08:55:42.612Z,100615.00
2018-09-15T08:58:10.353Z,100621.00
2018-09-15T09:00:38.029Z,100625.00
2018-09-15T09:03:06.164Z,100621.00
2018-09-15T09:05:35.184Z,100619.00
2018-09-15T09:08:03.136Z,100620.00
2018-09-15T09:10:31.891Z,100621.00
2018-09-15T09:13:00.098Z,100623.00
2018-09-15T09:15:27.989Z,100619.00
2018-09-15T09:17:58.928Z,100627.00
2018-09-15T09:20:26.794Z,100621.00
2018-09-15T09:22:58.861Z,100620.00
2018-09-15T09:25:29.725Z,100622.00
2018-09-15T09:27:57.476Z,100628.00
2018-09-15T09:30:25.567Z,100622.00
2018-09-15T09:32:55.317Z,100616.00
2018-09-15T09:35:23.086Z,100612.00
2018-09-15T09:37:51.302Z,100616.00
2018-09-15T09:40:30.445Z,100607.00
2018-09-15T09:43:21.407Z,100619.00
2018-09-15T09:45:49.493Z,100618.00
2018-09-15T09:48:19.188Z,100617.00
2018-09-15T09:50:51.365Z,100619.00
2018-09-15T09:53:19.152Z,100611.00
2018-09-15T09:55:46.958Z,100621.00
2018-09-15T09:58:14.725Z,100620.00
2018-09-15T10:01:05.587Z,100622.00
2018-09-15T10:03:33.164Z,100608.00
2018-09-15T10:06:01.201Z,100613.00
2018-09-15T10:08:28.765Z,100627.00
2018-09-15T10:10:56.690Z,100631.00
2018-09-15T10:13:24.285Z,100628.00
2018-09-15T10:15:52.130Z,100625.00
2018-09-15T10:18:20.281Z,100621.00
2018-09-15T10:20:47.869Z,100632.00
2018-09-15T10:23:15.833Z,100628.00
2018-09-15T10:25:43.702Z,100626.00
2018-09-15T10:28:11.323Z,100619.00
2018-09-15T10:30:38.966Z,100625.00
2018-09-15T10:33:06.669Z,100624.00
2018-09-15T10:35:34.286Z,100625.00
2018-09-15T10:38:01.858Z,100625.00
2018-09-15T10:40:29.738Z,100616.00
2018-09-15T10:42:57.315Z,100621.00
2018-09-15T10:45:24.877Z,100624.00
2018-09-15T10:47:52.593Z,100619.00
2018-09-15T10:50:20.141Z,100629.00
2018-09-15T10:52:47.749Z,100623.00
2018-09-15T10:55:15.811Z,100619.00
2018-09-15T10:57:43.378Z,100614.00
2018-09-15T11:00:11.047Z,100612.00
2018-09-15T11:02:38.698Z,100619.00
2018-09-15T11:05:07.535Z,100625.00
2018-09-15T11:07:35.084Z,100628.00
2018-09-15T11:10:07.863Z,100622.00
2018-09-15T11:12:35.572Z,100627.00
2018-09-15T11:15:03.188Z,100632.00
2018-09-15T11:17:31.460Z,100637.00
2018-09-15T11:19:58.998Z,100628.00
2018-09-15T11:22:26.547Z,100624.00
2018-09-15T11:24:54.307Z,100623.00
2018-09-15T11:27:21.945Z,100627.00
2018-09-15T11:29:49.601Z,100624.00
2018-09-15T11:32:19.049Z,100630.00
2018-09-15T11:34:46.732Z,100628.00
2018-09-15T11:37:14.364Z,100627.00
2018-09-15T11:39:42.214Z,100625.00
2018-09-15T11:42:09.832Z,100628.00
2018-09-15T11:44:37.457Z,100621.00
2018-09-15T11:47:05.449Z,100623.00
2018-09-15T11:49:33.032Z,100624.00
2018-09-15T11:52:00.731Z,100622.00
2018-09-15T11:54:28.620Z,100621.00
2018-09-15T11:56:56.233Z,100608.00
2018-09-15T11:59:23.925Z,100612.00
2018-09-15T12:01:52.007Z,100614.00
2018-09-15T12:04:19.597Z,100607.00
2018-09-15T12:06:47.323Z,100606.00
2018-09-15T12:09:15.160Z,100614.00
2018-09-15T12:11:42.557Z,100612.00
2018-09-15T12:14:11.178Z,100612.00
2018-09-15T12:16:38.960Z,100604.00
2018-09-15T12:19:06.675Z,100612.00
2018-09-15T12:21:34.341Z,100611.00
2018-09-15T12:24:02.150Z,100620.00
2018-09-15T12:26:29.711Z,100628.00
2018-09-15T12:28:57.280Z,100616.00
2018-09-15T12:31:26.084Z,100620.00
2018-09-15T12:33:54.434Z,100618.00
2018-09-15T12:36:22.037Z,100614.00
2018-09-15T12:38:49.659Z,100620.00
2018-09-15T12:41:18.512Z,100609.00
2018-09-15T12:43:46.961Z,100613.00
2018-09-15T12:46:14.774Z,100608.00
2018-09-15T12:48:42.759Z,100613.00
2018-09-15T12:51:10.545Z,100613.00
2018-09-15T12:53:38.165Z,100618.00
2018-09-15T12:56:05.860Z,100629.00
2018-09-15T12:58:33.407Z,100629.00
2018-09-15T13:01:01.087Z,100621.00
2018-09-15T13:03:29.066Z,100627.00
2018-09-15T13:05:56.701Z,100631.00
2018-09-15T13:08:24.445Z,100626.00
2018-09-15T13:10:52.142Z,100630.00
2018-09-15T13:13:20.340Z,100628.00
2018-09-15T13:15:47.981Z,100633.00
2018-09-15T13:18:15.567Z,100631.00
2018-09-15T13:20:43.414Z,100633.00
2018-09-15T13:23:11.125Z,100635.00
2018-09-15T13:25:38.721Z,100628.00
2018-09-15T13:28:06.627Z,100624.00
2018-09-15T13:30:34.458Z,100627.00
2018-09-15T13:33:02.116Z,100623.00
2018-09-15T13:35:29.685Z,100623.00
2018-09-15T13:37:57.615Z,100620.00
2018-09-15T13:40:25.156Z,100622.00
2018-09-15T13:42:52.960Z,100623.00
2018-09-15T13:45:20.490Z,100624.00
2018-09-15T13:47:48.077Z,100621.00
2018-09-15T13:50:15.944Z,100625.00
2018-09-15T13:52:44.656Z,100624.00
2018-09-15T13:55:12.927Z,100627.00
2018-09-15T13:57:40.537Z,100631.00
2018-09-15T14:00:08.200Z,100639.00
2018-09-15T14:02:40.616Z,100631.00
2018-09-15T14:05:08.706Z,100628.00
2018-09-15T14:07:36.338Z,100631.00
2018-09-15T14:10:07.048Z,100639.00
2018-09-15T14:12:31.622Z,100637.00
2018-09-15T14:14:59.977Z,100636.00
2018-09-15T14:17:27.864Z,100637.00
2018-09-15T14:19:55.464Z,100637.00
2018-09-15T14:22:23.427Z,100637.00
2018-09-15T14:24:51.586Z,100635.00
2018-09-15T14:27:19.912Z,100635.00
2018-09-15T14:29:47.787Z,100635.00
2018-09-15T14:32:15.616Z,100630.00
2018-09-15T14:34:43.315Z,100632.00
2018-09-15T14:37:11.352Z,100632.00
2018-09-15T14:39:39.010Z,100632.00
2018-09-15T14:42:07.593Z,100632.00
2018-09-15T14:44:35.463Z,100633.00
2018-09-15T14:47:03.122Z,100639.00
2018-09-15T14:49:30.800Z,100645.00
2018-09-15T14:51:58.417Z,100649.00
2018-09-15T14:54:26.517Z,100649.00
2018-09-15T14:56:54.413Z,100640.00
2018-09-15T14:59:22.044Z,100642.00
2018-09-15T15:01:49.698Z,100641.00
2018-09-15T15:04:17.538Z,100643.00
2018-09-15T15:06:45.133Z,100646.00
2018-09-15T15:09:12.823Z,100646.00
2018-09-15T15:11:40.773Z,100645.00
2018-09-15T15:14:08.863Z,100640.00
2018-09-15T15:16:37.025Z,100646.00
2018-09-15T15:19:05.085Z,100638.00
2018-09-15T15:21:33.069Z,100638.00
2018-09-15T15:24:05.931Z,100636.00
2018-09-15T15:26:33.779Z,100640.00
2018-09-15T15:29:01.698Z,100638.00
2018-09-15T15:31:29.382Z,100637.00
2018-09-15T15:33:57.409Z,100641.00
2018-09-15T15:36:25.837Z,100637.00
2018-09-15T15:38:53.500Z,100634.00
2018-09-15T15:41:21.404Z,100629.00
2018-09-15T15:43:48.980Z,100624.00
2018-09-15T15:46:16.550Z,100625.00
2018-09-15T15:48:44.401Z,100623.00
2018-09-15T15:51:12.060Z,100622.00
2018-09-15T15:53:39.722Z,100621.00
2018-09-15T15:56:07.577Z,100621.00
2018-09-15T15:58:35.322Z,100626.00
2018-09-15T16:01:02.966Z,100627.00
2018-09-15T16:03:30.765Z,100634.00
2018-09-15T16:05:58.530Z,100640.00
2018-09-15T16:08:26.509Z,100643.00
2018-09-15T16:10:54.121Z,100642.00
2018-09-15T16:13:21.727Z,100636.00
2018-09-15T16:15:49.825Z,100637.00
2018-09-15T16:18:17.491Z,100635.00
2018-09-15T16:20:45.181Z,100637.00
2018-09-15T16:23:12.945Z,100638.00
2018-09-15T16:25:40.681Z,100637.00
2018-09-15T16:28:08.261Z,100638.00
2018-09-15T16:30:36.146Z,100641.00
2018-09-15T16:33:03.840Z,100640.00
2018-09-15T16:35:32.069Z,100640.00
2018-09-15T16:37:59.504Z,100637.00
2018-09-15T16:40:27.157Z,100636.00
2018-09-15T16:42:54.893Z,100639.00
2018-09-15T16:45:22.504Z,100640.00
2018-09-15T16:47:50.094Z,100643.00
2018-09-15T16:50:17.973Z,100644.00
2018-09-15T16:52:45.626Z,100645.00
2018-09-15T16:55:14.515Z,100637.00
2018-09-15T16:57:42.194Z,100636.00
2018-09-15T17:00:09.850Z,100650.00
2018-09-15T17:02:37.405Z,100651.00
2018-09-15T17:05:05.369Z,100650.00
2018-09-15T17:07:33.169Z,100652.00
2018-09-15T17:10:01.054Z,100655.00
2018-09-15T17:12:28.781Z,100655.00
2018-09-15T17:14:56.401Z,100652.00
2018-09-15T17:17:24.538Z,100659.00
2018-09-15T17:19:52.144Z,100658.00
2018-09-15T17:22:19.834Z,100665.00
2018-09-15T17:24:47.766Z,100668.00
2018-09-15T17:27:15.426Z,100669.00
2018-09-15T17:29:43.044Z,100676.00
2018-09-15T17:32:10.776Z,100677.00
2018-09-15T17:34:38.445Z,100677.00
2018-09-15T17:37:06.147Z,100683.00
2018-09-15T17:39:33.839Z,100693.00
2018-09-15T17:42:01.413Z,100691.00
2018-09-15T17:44:29.007Z,100693.00
2018-09-15T17:46:57.085Z,100704.00
2018-09-15T17:49:24.751Z,100704.00
2018-09-15T17:51:52.453Z,100704.00
2018-09-15T17:54:20.048Z,100710.00
2018-09-15T17:56:47.674Z,100708.00
2018-09-15T17:59:15.311Z,100704.00
2018-09-15T18:01:43.321Z,100703.00
2018-09-15T18:04:11.075Z,100707.00
2018-09-15T18:06:38.685Z,100709.00
2018-09-15T18:09:07.652Z,100712.00
2018-09-15T18:11:35.273Z,100717.00
2018-09-15T18:14:03.142Z,100722.00
2018-09-15T18:16:31.474Z,100725.00
2018-09-15T18:18:59.201Z,100721.00
2018-09-15T18:21:26.793Z,100724.00
2018-09-15T18:23:55.550Z,100726.00
2018-09-15T18:26:23.084Z,100726.00
2018-09-15T18:28:50.669Z,100728.00
2018-09-15T18:31:18.346Z,100728.00
2018-09-15T18:33:46.103Z,100728.00
2018-09-15T18:36:14.289Z,100734.00
2018-09-15T18:38:42.181Z,100739.00
2018-09-15T18:41:09.596Z,100742.00
2018-09-15T18:43:37.186Z,100745.00
2018-09-15T18:46:04.822Z,100741.00
2018-09-15T18:48:32.448Z,100744.00
2018-09-15T18:51:00.064Z,100747.00
2018-09-15T18:53:27.667Z,100746.00
2018-09-15T18:55:55.280Z,100746.00
2018-09-15T18:58:22.938Z,100746.00
2018-09-15T19:00:50.553Z,100751.00
2018-09-15T19:03:18.365Z,100753.00
2018-09-15T19:05:46.393Z,100755.00
2018-09-15T19:08:14.018Z,100752.00
2018-09-15T19:10:42.259Z,100757.00
2018-09-15T19:13:10.422Z,100759.00
2018-09-15T19:15:37.997Z,100770.00
2018-09-15T19:18:05.874Z,100768.00
2018-09-15T19:20:33.529Z,100771.00
2018-09-15T19:23:01.372Z,100773.00
2018-09-15T19:25:29.978Z,100770.00
2018-09-15T19:27:57.615Z,100768.00
2018-09-15T19:30:25.296Z,100769.00
2018-09-15T19:32:53.223Z,100774.00
2018-09-15T19:35:20.798Z,100772.00
2018-09-15T19:37:48.449Z,100776.00
2018-09-15T19:40:16.223Z,100781.00
2018-09-15T19:42:44.195Z,100783.00
2018-09-15T19:45:11.941Z,100780.00
2018-09-15T19:47:39.852Z,100780.00
2018-09-15T19:50:07.526Z,100779.00
2018-09-15T19:52:35.258Z,100783.00
2018-09-15T19:55:03.203Z,100788.00
2018-09-15T19:57:30.927Z,100784.00
2018-09-15T19:59:58.615Z,100785.00
2018-09-15T20:02:26.227Z,100786.00
2018-09-15T20:04:53.893Z,100788.00
2018-09-15T20:07:21.504Z,100790.00
2018-09-15T20:09:49.142Z,100794.00
2018-09-15T20:12:16.770Z,100796.00
2018-09-15T20:14:44.654Z,100795.00
2018-09-15T20:17:11.074Z,100793.00
2018-09-15T20:19:37.422Z,100794.00
2018-09-15T20:22:06.211Z,100795.00
2018-09-15T20:24:33.820Z,100799.00
2018-09-15T20:27:01.516Z,100804.00
2018-09-15T20:29:29.161Z,100803.00
2018-09-15T20:31:56.777Z,100808.00
2018-09-15T20:34:24.605Z,100807.00
2018-09-15T20:36:52.334Z,100813.00
2018-09-15T20:39:19.992Z,100816.00
2018-09-15T20:41:47.629Z,100818.00
2018-09-15T20:44:14.875Z,100822.00
2018-09-15T20:46:42.621Z,100819.00
2018-09-15T20:49:10.380Z,100821.00
2018-09-15T20:51:38.108Z,100816.00
2018-09-15T20:54:06.065Z,100820.00
2018-09-15T20:56:33.657Z,100826.00
2018-09-15T20:59:01.245Z,100828.00
2018-09-15T21:01:28.843Z,100845.00
2018-09-15T21:03:56.427Z,100839.00
2018-09-15T21:06:24.537Z,100843.00
2018-09-15T21:08:52.185Z,100841.00
2018-09-15T21:11:19.809Z,100846.00
2018-09-15T21:13:47.952Z,100849.00
2018-09-15T21:16:15.698Z,100850.00
2018-09-15T21:18:43.709Z,100854.00
2018-09-15T21:21:11.622Z,100854.00
2018-09-15T21:23:39.269Z,100860.00
2018-09-15T21:26:06.853Z,100861.00
2018-09-15T21:28:34.500Z,100868.00
2018-09-15T21:31:02.029Z,100869.00
2018-09-15T21:33:29.637Z,100868.00
2018-09-15T21:35:57.370Z,100874.00
2018-09-15T21:38:24.946Z,100871.00
2018-09-15T21:40:52.517Z,100876.00
2018-09-15T21:43:20.608Z,100872.00
2018-09-15T21:45:48.044Z,100873.00
2018-09-15T21:48:15.660Z,100873.00
2018-09-15T21:50:43.510Z,100876.00
2018-09-15T21:53:11.136Z,100880.00
2018-09-15T21:55:38.669Z,100881.00
2018-09-15T21:58:06.362Z,100885.00
2018-09-15T22:00:34.141Z,100883.00
2018-09-15T22:03:02.119Z,100878.00
2018-09-15T22:05:29.930Z,100885.00
2018-09-15T22:07:57.450Z,100886.00
2018-09-15T22:10:25.109Z,100887.00
2018-09-15T22:12:52.724Z,100891.00
2018-09-15T22:15:24.220Z,100890.00
2018-09-15T22:17:52.314Z,100886.00
2018-09-15T22:20:20.461Z,100892.00
2018-09-15T22:22:48.161Z,100902.00
2018-09-15T22:25:16.121Z,100902.00
2018-09-15T22:27:44.026Z,100902.00
2018-09-15T22:30:11.687Z,100903.00
2018-09-15T22:32:39.245Z,100912.00
2018-09-15T22:35:06.880Z,100913.00
2018-09-15T22:37:34.457Z,100915.00
2018-09-15T22:40:02.667Z,100916.00
2018-09-15T22:42:30.391Z,100919.00
2018-09-15T22:44:58.302Z,100921.00
2018-09-15T22:47:26.142Z,100917.00
2018-09-15T22:49:54.187Z,100915.00
2018-09-15T22:52:21.785Z,100919.00
2018-09-15T22:54:49.467Z,100923.00
2018-09-15T22:57:17.172Z,100932.00
2018-09-15T22:59:44.744Z,100928.00
2018-09-15T23:02:12.356Z,100933.00
2018-09-15T23:04:40.133Z,100927.00
2018-09-15T23:07:07.693Z,100923.00
2018-09-15T23:09:35.359Z,100929.00
2018-09-15T23:12:02.970Z,100927.00
2018-09-15T23:14:30.652Z,100925.00
2018-09-15T23:16:58.245Z,100926.00
2018-09-15T23:19:26.089Z,100929.00
2018-09-15T23:21:53.664Z,100929.00
2018-09-15T23:24:21.241Z,100931.00
2018-09-15T23:26:48.872Z,100924.00
2018-09-15T23:29:22.568Z,100925.00
2018-09-15T23:31:56.773Z,100933.00
2018-09-15T23:34:24.517Z,100932.00
2018-09-15T23:37:07.557Z,100930.00
2018-09-15T23:39:35.116Z,100936.00
2018-09-15T23:42:02.873Z,100934.00
2018-09-15T23:44:30.493Z,100933.00
2018-09-15T23:46:58.662Z,100935.00
2018-09-15T23:49:27.094Z,100930.00
2018-09-15T23:51:54.753Z,100932.00
2018-09-15T23:54:22.377Z,100934.00
2018-09-15T23:56:50.161Z,100934.00
2018-09-15T23:59:17.735Z,100937.00
